Latest Weather Observations for Macquarie Island*

IDT60801

Issued at 2:02 am EDT Wednesday 18 October 2017 (issued every 30 minutes, with the page automatically refreshed every 10 minutes)

About weather observations | Map of weather stations | Latest weather observations for ANT | Other Formats
Station Details ID: 300004 Name: MACQUARIE ISLAND Lat: -54.50 Lon: 158.94 Height: 6.0 m
Data from the previous 72 hours. | See also: Recent months at Macquarie Island*
Date/Time
EDT
Temp
°C
App
Temp
°C
Dew
Point
°C
Rel
Hum
%
Delta-T
°C
Wind Press
QNH
hPa
Press
MSL
hPa
Rain since
9am
mm
Dir  Spd
km/h
Gust
km/h
Spd
kts
Gust
kts
18/02:00am 5.3 -4.1 4.3 93 0.4 N 43 48 23 26 1011.5 - 0.6
18/01:30am 5.1 -2.5 3.8 91 0.5 N 33 39 18 21 1012.0 - 0.6
18/01:00am 5.0 -2.5 3.5 90 0.6 N 32 37 17 20 1012.4 - 0.6
18/12:30am 4.9 -2.6 3.4 90 0.6 N 32 39 17 21 1013.0 - 0.6
18/12:00am 4.7 -3.0 3.2 90 0.6 N 33 37 18 20 1013.4 1013.7 0.6
 
Date/Time
EDT
Temp
°C
App
Temp
°C
Dew
Point
°C
Rel
Hum
%
Delta-T
°C
Wind Press
QNH
hPa
Press
MSL
hPa
Rain since
9am
mm
Dir  Spd
km/h
Gust
km/h
Spd
kts
Gust
kts
17/11:30pm 4.7 -3.4 3.0 89 0.7 N 35 41 19 22 1014.4 - 0.6
17/11:00pm 4.6 -3.2 3.1 90 0.6 N 33 37 18 20 1015.3 - 0.6
17/10:30pm 4.4 -3.2 3.1 91 0.5 N 32 39 17 21 1015.5 - 0.6
17/10:00pm 4.4 -2.4 3.1 91 0.5 N 28 33 15 18 1015.5 - 0.6
17/09:30pm 4.4 -2.8 2.8 89 0.6 N 30 33 16 18 1016.2 - 0.2
17/09:00pm 4.5 -2.4 2.5 87 0.8 NNW 28 30 15 16 1016.8 1017.1 0.0
17/08:30pm 4.5 -1.6 2.5 87 0.8 NNW 24 30 13 16 1017.0 - 0.0
17/08:00pm 4.5 -1.0 2.0 84 1.0 NNW 20 24 11 13 1017.1 - 0.0
17/07:30pm 4.3 -1.1 1.3 81 1.2 NW 19 22 10 12 1016.8 - 0.0
17/07:00pm 4.2 -1.4 1.2 81 1.2 NW 20 24 11 13 1016.7 - 0.0
17/06:30pm 4.3 -1.0 1.7 83 1.0 WNW 19 24 10 13 1016.3 - 0.0
17/06:00pm 4.3 -2.4 1.2 80 1.2 WNW 26 33 14 18 1016.1 1016.4 0.0
17/05:30pm 4.8 -2.3 1.3 78 1.4 WNW 28 35 15 19 1016.2 - 0.0
17/05:00pm 4.8 -2.4 0.6 74 1.6 W 28 35 15 19 1016.3 - 0.0
17/04:30pm 5.4 -2.3 0.2 69 2.0 W 30 37 16 20 1016.2 - 0.0
17/04:00pm 5.7 -2.5 0.3 68 2.1 W 33 39 18 21 1016.4 - 0.0
17/03:30pm 5.3 -2.4 -0.3 67 2.1 W 30 35 16 19 1016.4 - 0.0
17/03:00pm 5.8 -2.3 -0.3 65 2.3 W 32 39 17 21 1016.2 1016.5 0.0
17/02:30pm 5.9 -2.2 -0.6 63 2.5 W 32 41 17 22 1015.8 - 0.0
17/02:00pm 6.0 -2.7 -0.3 64 2.4 W 35 43 19 23 1015.8 - 0.0
17/01:30pm 5.9 -2.8 -0.6 63 2.5 W 35 41 19 22 1015.6 - 0.0
17/01:00pm 5.8 -2.9 -0.5 64 2.4 W 35 44 19 24 1015.4 - 0.0
17/12:30pm 5.8 -3.3 -0.3 65 2.3 W 37 46 20 25 1015.4 - 0.0
17/12:00pm 5.9 -3.6 -0.4 64 2.4 W 39 48 21 26 1015.3 1015.6 0.0
17/11:30am 5.0 -3.7 -0.8 66 2.2 W 35 44 19 24 1015.3 - 0.0
17/11:00am 4.5 -5.0 -1.1 67 2.1 W 39 46 21 25 1015.0 - 0.0
17/10:30am 4.4 -5.2 -1.4 66 2.1 W 39 46 21 25 1015.0 - 0.0
17/10:00am 4.3 -5.7 -1.7 65 2.2 W 41 50 22 27 1015.1 - 0.0
17/09:30am 4.2 -5.8 -1.8 65 2.2 W 41 56 22 30 1014.8 - 0.0
17/09:00am 4.0 -5.9 -1.2 69 1.9 W 41 50 22 27 1014.5 1014.8 0.4
17/08:30am 4.2 -6.3 -1.2 68 2.0 W 44 59 24 32 1014.1 - 0.4
17/08:00am 4.0 -6.9 -1.6 67 2.0 W 46 59 25 32 1013.7 - 0.4
17/07:30am 3.8 -6.8 -1.5 68 1.9 W 44 56 24 30 1013.4 - 0.4
17/07:00am 3.7 -7.2 -1.6 68 1.9 W 46 59 25 32 1013.1 - 0.4
17/06:30am 3.6 -7.0 -1.9 67 2.0 W 44 59 24 32 1012.5 - 0.4
17/06:00am 3.5 -6.5 -1.4 70 1.8 W 41 56 22 30 1012.3 1012.6 0.4
17/05:30am 3.3 -6.3 -1.4 71 1.7 W 39 59 21 32 1012.0 - 0.4
17/05:00am 3.1 -7.3 -1.8 70 1.7 W 43 61 23 33 1011.9 - 0.4
17/04:30am 3.1 -7.5 -2.2 68 1.9 W 44 63 24 34 1011.5 - 0.4
17/04:00am 3.1 -7.2 -0.7 76 1.4 W 43 65 23 35 1011.1 - 0.4
17/03:39am 3.3 -7.2 -1.3 72 1.7 W 44 63 24 34 1010.8 - 0.4
17/03:30am 3.2 -8.1 -1.5 71 1.7 W 48 63 26 34 1010.7 - 0.4
17/03:15am 3.2 -7.7 -1.5 71 1.7 W 46 65 25 35 1010.5 - 0.4
17/03:00am 3.1 -8.3 -2.4 67 1.9 W 48 63 26 34 1010.4 1010.7 0.4
17/02:34am 3.3 -7.3 -1.6 70 1.8 W 44 65 24 35 1010.0 - 0.4
17/02:30am 3.3 -7.3 -1.6 70 1.8 W 44 59 24 32 1009.9 - 0.4
17/02:00am 3.3 -7.7 -2.2 67 1.9 W 46 63 25 34 1009.9 - 0.4
17/01:30am 3.2 -7.8 -1.7 70 1.7 W 46 59 25 32 1009.6 - 0.4
17/01:00am 2.9 -7.2 -2.4 68 1.8 W 41 72 22 39 1009.0 - 0.4
17/12:30am 2.9 -7.6 -1.3 74 1.5 W 44 69 24 37 1008.8 - 0.4
17/12:04am 3.2 -7.7 -1.2 73 1.6 W 46 65 25 35 1008.3 - 0.4
17/12:00am 3.2 -7.4 -1.9 69 1.8 W 44 57 24 31 1008.4 1008.7 0.4
 
Date/Time
EDT
Temp
°C
App
Temp
°C
Dew
Point
°C
Rel
Hum
%
Delta-T
°C
Wind Press
QNH
hPa
Press
MSL
hPa
Rain since
9am
mm
Dir  Spd
km/h
Gust
km/h
Spd
kts
Gust
kts
16/11:30pm 3.2 -7.6 -3.4 62 2.2 W 44 59 24 32 1008.3 - 0.4
16/11:18pm 3.1 -8.0 -3.2 63 2.2 W 46 65 25 35 1008.1 - 0.4
16/11:00pm 3.0 -8.2 -3.8 61 2.3 W 46 59 25 32 1008.0 - 0.4
16/10:30pm 2.9 -7.9 -3.6 62 2.2 W 44 63 24 34 1007.7 - 0.4
16/10:00pm 2.9 -6.1 -2.8 66 2.0 W 35 65 19 35 1007.4 - 0.4
16/09:33pm 2.7 -7.9 -3.4 64 2.1 W 43 61 23 33 1007.1 - 0.4
16/09:30pm 2.7 -8.5 -3.4 64 2.1 W 46 61 25 33 1007.1 - 0.4
16/09:00pm 2.7 -7.4 -2.4 69 1.8 W 41 69 22 37 1006.9 1007.2 0.4
16/08:30pm 2.7 -7.8 -0.9 77 1.3 W 44 72 24 39 1006.7 - 0.2
16/08:24pm 2.6 -8.3 -1.6 74 1.5 W 46 72 25 39 1006.7 - 0.2
16/08:00pm 2.7 -8.9 -0.9 77 1.3 W 50 67 27 36 1006.3 - 0.2
16/07:48pm 3.3 -7.6 -1.4 71 1.7 W 46 72 25 39 1006.1 - 0.2
16/07:30pm 3.2 -7.4 -2.1 68 1.9 W 44 57 24 31 1006.0 - 0.2
16/07:00pm 2.6 -7.9 -2.3 70 1.7 W 43 59 23 32 1005.6 - 0.2
16/06:30pm 3.3 -7.5 -3.3 62 2.3 W 44 57 24 31 1005.4 - 0.2
16/06:00pm 2.9 -7.5 -2.0 70 1.7 W 43 56 23 30 1005.2 1005.5 0.2
16/05:30pm 3.2 -7.6 -3.1 63 2.2 W 44 57 24 31 1004.9 - 0.2
16/05:00pm 3.1 -7.4 -2.6 66 2.0 W 43 59 23 32 1005.0 - 0.2
16/04:30pm 3.0 -7.8 -3.8 61 2.3 W 44 56 24 30 1004.9 - 0.2
16/04:00pm 3.2 -7.9 -2.9 64 2.1 W 46 65 25 35 1004.7 - 0.2
16/03:44pm 2.9 -7.9 -3.2 64 2.1 W 44 69 24 37 1004.7 - 0.2
16/03:30pm 2.9 -8.3 -3.6 62 2.2 W 46 59 25 32 1004.6 - 0.2
16/03:00pm 3.0 -8.8 -2.3 68 1.9 W 50 61 27 33 1004.4 1004.7 0.2
16/02:39pm 2.6 -7.6 -0.5 80 1.1 W 43 61 23 33 1004.6 - 0.2
16/02:30pm 2.6 -6.3 0.5 86 0.8 W 37 48 20 26 1004.5 - 0.2
16/02:00pm 3.0 -7.5 -0.8 76 1.4 W 44 56 24 30 1004.5 - 0.2
16/01:30pm 3.3 -6.5 -0.5 76 1.4 W 41 54 22 29 1004.4 - 0.2
16/01:00pm 2.5 -8.4 -0.9 78 1.2 W 46 61 25 33 1004.8 - 0.2
16/12:30pm 3.0 -7.6 -1.7 71 1.7 W 44 54 24 29 1004.5 - 0.2
16/12:00pm 2.9 -8.9 -2.0 70 1.7 W 50 59 27 32 1004.5 1004.8 0.2
16/11:30am 2.9 -8.5 -2.2 69 1.8 W 48 61 26 33 1004.5 - 0.2
16/11:00am 2.8 -9.8 -2.3 69 1.8 W 54 67 29 36 1004.6 - 0.2
16/10:30am 2.6 -9.7 -2.9 67 1.9 W 52 67 28 36 1004.9 - 0.2
16/10:02am 2.3 -9.2 -2.6 70 1.7 W 48 67 26 36 1004.9 - 0.2
16/10:00am 2.3 -9.1 -2.2 72 1.6 W 48 59 26 32 1004.9 - 0.2
16/09:41am 1.9 -9.5 -1.9 76 1.3 W 48 67 26 36 1005.0 - 0.2
16/09:30am 2.0 -8.5 -1.4 78 1.2 W 44 59 24 32 1004.9 - 0.0
16/09:07am 2.2 -8.3 -2.9 69 1.7 W 43 61 23 33 1005.0 - 0.0
16/09:00am 2.1 -8.7 -3.4 67 1.9 W 44 61 24 33 1004.9 1005.2 2.0
16/08:30am 1.8 -7.8 -4.7 62 2.2 W 37 63 20 34 1004.5 - 2.0
16/08:00am 1.8 -7.4 -4.1 65 2.0 W 35 72 19 39 1004.1 - 2.0
16/07:30am 2.0 -8.8 -3.9 65 1.9 W 44 65 24 35 1003.5 - 2.0
16/07:00am 1.6 -9.6 -4.0 66 1.9 W 46 70 25 38 1003.1 - 2.0
16/06:30am 1.1 -10.6 -4.3 67 1.8 W 48 76 26 41 1002.6 - 2.0
16/06:00am 1.6 -9.9 -2.7 73 1.5 W 48 78 26 42 1002.3 1002.6 2.0
16/05:30am 1.1 -12.2 -3.7 70 1.7 W 57 82 31 44 1001.8 - 1.6
16/05:00am 1.1 -11.9 -1.3 84 0.8 W 57 80 31 43 1001.4 - 1.4
16/04:30am -0.1 -14.4 -2.3 85 0.7 W 63 83 34 45 1001.4 - 1.4
16/04:00am 1.5 -11.0 -2.1 77 1.2 W 54 74 29 40 1000.9 - 1.2
16/03:33am 0.4 -12.1 -2.1 83 0.9 W 54 72 29 39 1001.1 - 1.2
16/03:30am 0.8 -12.1 -2.1 81 1.0 W 56 72 30 39 1001.1 - 1.2
16/03:09am 2.2 -10.5 -3.7 65 2.0 W 54 72 29 39 1000.5 - 1.2
16/03:00am 2.3 -12.2 -4.2 62 2.2 W 63 72 34 39 1000.5 1000.8 1.2
16/02:30am 1.8 -11.2 -2.9 71 1.6 W 56 78 30 42 1000.4 - 1.0
16/02:00am 1.8 -9.3 -2.5 73 1.5 W 46 67 25 36 1000.2 - 1.0
16/01:30am 1.2 -8.9 -2.5 76 1.3 W 41 54 22 29 1000.1 - 1.0
16/01:10am 1.1 -11.2 -3.0 74 1.4 W 52 70 28 38 1000.1 - 1.0
16/01:00am 1.9 -10.0 -3.0 70 1.7 W 50 63 27 34 999.9 - 1.0
16/12:30am 0.7 -7.7 -2.7 78 1.2 W 32 52 17 28 1000.1 - 1.0
16/12:00am 1.8 -10.0 -5.3 59 2.4 W 48 78 26 42 999.7 1000.0 1.0
 
Date/Time
EDT
Temp
°C
App
Temp
°C
Dew
Point
°C
Rel
Hum
%
Delta-T
°C
Wind Press
QNH
hPa
Press
MSL
hPa
Rain since
9am
mm
Dir  Spd
km/h
Gust
km/h
Spd
kts
Gust
kts
15/11:30pm 1.9 -9.8 -5.2 59 2.4 W 48 83 26 45 999.5 - 1.0
15/11:25pm 1.8 -9.1 -6.0 56 2.6 W 43 82 23 44 999.3 - 1.0
15/11:17pm 1.8 -8.3 -6.3 55 2.6 W 39 59 21 32 999.3 - 1.0
15/11:00pm 1.7 -12.2 -5.7 58 2.4 W 59 87 32 47 999.0 - 1.0
15/10:30pm 1.9 -12.7 -5.2 59 2.4 W 63 87 34 47 998.9 - 1.0
15/10:00pm 1.7 -12.5 -5.0 61 2.3 W 61 83 33 45 998.2 - 0.8
15/09:44pm 1.0 -13.5 -4.2 68 1.8 W 63 82 34 44 998.1 - 0.8
15/09:32pm 1.5 -11.7 -2.6 74 1.4 W 57 74 31 40 997.8 - 0.8
15/09:30pm 1.4 -7.7 -3.5 70 1.7 W 35 78 19 42 997.7 - 0.8
15/09:08pm 0.3 -9.2 -4.0 73 1.4 W 37 85 20 46 997.2 - 0.8
15/09:06pm 0.2 -8.9 -3.9 74 1.4 W 35 61 19 33 997.7 - 0.8
15/09:00pm 0.3 -13.3 -3.2 77 1.2 W 59 102 32 55 997.4 997.7 0.8
15/08:51pm 1.7 -11.5 -4.6 63 2.1 W 56 89 30 48 997.2 - 0.8
15/08:37pm 1.4 -9.6 -4.9 63 2.1 W 44 67 24 36 996.9 - 0.8
15/08:30pm 1.5 -13.5 -5.0 62 2.2 W 65 95 35 51 997.0 - 0.8
15/08:00pm 1.1 -12.8 -2.8 75 1.4 W 61 82 33 44 996.3 - 0.8
15/07:34pm 0.1 -14.6 -2.6 82 0.9 W 65 91 35 49 996.0 - 0.8
15/07:30pm 0.0 -10.6 -3.0 80 1.0 W 43 74 23 40 995.8 - 0.8
15/07:26pm 0.7 -8.7 -2.9 77 1.3 W 37 70 20 38 995.7 - 0.8
15/07:19pm 0.5 -8.0 -2.9 78 1.2 W 32 50 17 27 995.4 - 0.8
15/07:17pm 0.5 -7.2 -2.7 79 1.1 W 28 37 15 20 995.3 - 0.8
15/07:10pm 0.4 -11.5 -3.0 78 1.2 WSW 50 70 27 38 995.3 - 0.8
15/07:00pm 0.9 -11.4 -3.0 75 1.4 W 52 72 28 39 994.5 - 0.8
15/06:30pm 1.4 -11.3 -3.8 68 1.8 W 54 100 29 54 993.7 - 0.8
15/06:09pm 1.7 -9.8 -2.8 72 1.5 W 48 95 26 51 993.3 - 0.8
15/06:00pm 1.2 -7.2 -2.2 78 1.2 W 32 61 17 33 993.1 993.4 0.8
15/05:58pm 1.2 -6.4 -2.0 79 1.1 W 28 43 15 23 993.2 - 0.8
15/05:55pm 1.1 -9.4 -2.5 77 1.3 SW 43 67 23 36 993.2 - 0.8
15/05:52pm 1.4 -7.9 -2.4 76 1.3 W 37 57 20 31 993.0 - 0.8
15/05:40pm 1.8 -14.2 -2.7 72 1.5 W 72 95 39 51 992.2 - 0.8
15/05:30pm 1.9 -9.1 -1.9 76 1.3 W 46 80 25 43 991.7 - 0.8
15/05:29pm 1.8 -7.9 -2.0 76 1.3 W 39 61 21 33 991.7 - 0.8
15/05:00pm 2.3 -12.3 -2.0 73 1.5 W 65 83 35 45 990.6 - 0.8
15/04:49pm 2.2 -8.0 -3.3 67 1.9 W 41 80 22 43 990.7 - 0.8
15/04:30pm 1.9 -12.0 -2.4 73 1.5 W 61 104 33 56 990.1 - 0.8
15/04:22pm 1.5 -12.2 -1.2 82 1.0 W 61 104 33 56 989.8 - 0.8
15/04:16pm 0.2 -9.8 -2.0 85 0.8 W 41 67 22 36 990.1 - 0.8
15/04:10pm 1.0 -14.4 -1.9 81 1.0 W 69 113 37 61 989.9 - 0.8
15/04:09pm 1.3 -14.1 -1.9 79 1.1 W 69 93 37 50 989.9 - 0.8
15/04:07pm 2.2 -8.5 -2.5 71 1.6 W 44 80 24 43 989.5 - 0.8
15/04:03pm 2.0 -8.1 -2.7 71 1.6 WSW 41 59 22 32 989.7 - 0.8
15/04:00pm 2.0 -9.0 -2.0 75 1.4 W 46 87 25 47 989.0 - 0.8
15/03:47pm 1.4 -9.4 -0.7 86 0.8 W 46 70 25 38 989.0 - 0.8
15/03:30pm 0.2 -14.7 -1.7 87 0.7 W 67 102 36 55 988.5 - 0.6
15/03:00pm 2.9 -11.2 -0.7 77 1.3 W 63 107 34 58 987.3 987.6 0.6
15/02:30pm 3.2 -12.3 -2.9 64 2.1 W 69 106 37 57 986.2 - 0.6
15/02:00pm 2.8 -10.4 -2.7 67 1.9 W 57 95 31 51 985.0 - 0.6
15/01:30pm 2.0 -11.8 -1.6 77 1.3 W 61 96 33 52 984.3 - 0.4
15/01:00pm 1.3 -12.2 -2.6 75 1.4 W 59 83 32 45 983.8 - 0.4
15/12:30pm 1.2 -10.6 -2.2 78 1.2 W 50 80 27 43 983.2 - 0.4
15/12:00pm -0.3 -14.6 -2.7 84 0.8 W 63 96 34 52 982.5 982.8 0.2
15/11:30am 0.5 -14.1 -2.0 83 0.9 W 65 89 35 48 981.6 - 0.2
15/11:02am 1.6 -13.1 -2.7 73 1.5 W 65 83 35 45 981.3 - 0.2
15/11:00am 1.3 -13.4 -3.0 73 1.5 W 65 78 35 42 981.6 - 0.2
15/10:45am 0.2 -13.7 -2.8 80 1.0 W 61 80 33 43 981.2 - 0.2
15/10:39am -0.4 -13.0 -2.9 83 0.8 W 54 70 29 38 981.5 - 0.0
15/10:30am 0.6 -15.8 -3.0 77 1.2 W 74 100 40 54 981.6 - 0.0
15/10:28am 1.4 -14.3 -3.5 70 1.7 W 70 89 38 48 981.6 - 0.0
15/10:19am 0.4 -10.8 -3.5 75 1.3 W 46 85 25 46 981.4 - 0.0
15/10:00am 2.1 -12.8 -4.4 62 2.3 W 65 87 35 47 980.9 - 0.0
15/09:55am 1.7 -13.1 -3.8 67 1.9 W 65 83 35 45 980.7 - 0.0
15/09:50am 1.2 -14.6 -4.4 66 1.9 W 70 83 38 45 980.8 - 0.0
15/09:39am 1.3 -10.8 -1.8 80 1.1 W 52 72 28 39 980.6 - 0.0
15/09:36am 1.1 -11.4 -1.6 82 0.9 W 54 67 29 36 980.8 - 0.0
15/09:30am -0.1 -16.5 -2.8 82 0.9 W 74 104 40 56 980.7 - 0.0
15/09:00am 2.0 -14.9 -3.5 67 1.9 W 76 102 41 55 979.6 979.9 11.2
15/08:30am 1.8 -13.9 -3.3 69 1.7 W 70 96 38 52 979.0 - 11.2
15/08:00am 0.9 -15.8 -2.3 79 1.1 W 76 107 41 58 977.9 - 11.2
15/07:30am 1.9 -15.1 -1.5 78 1.2 W 78 113 42 61 976.1 - 11.2
15/07:00am 2.0 -15.3 -0.6 83 0.9 W 80 113 43 61 974.3 - 11.2
15/06:59am 2.0 -15.3 -0.6 83 0.9 W 80 109 43 59 974.1 - 11.2
15/06:30am 2.3 -15.3 0.7 89 0.6 W 83 122 45 66 972.1 - 11.0
15/06:24am 2.3 -15.8 0.5 88 0.7 W 85 122 46 66 972.0 - 11.0
15/06:00am 3.0 -14.5 1.4 89 0.6 W 83 115 45 62 969.9 970.2 11.0
15/05:55am 2.9 -14.4 1.6 91 0.5 W 82 107 44 58 969.6 - 10.8
15/05:30am 3.5 -13.1 1.2 85 0.9 W 78 100 42 54 967.6 - 10.4
15/05:26am 3.6 -11.8 1.5 86 0.8 W 72 91 39 49 967.1 - 10.4
15/05:23am 3.5 -13.1 1.2 85 0.9 W 78 91 42 49 967.1 - 10.4
15/05:00am 4.3 -9.3 2.5 88 0.7 WNW 63 83 34 45 965.9 - 10.2
15/04:30am 4.4 -9.6 2.1 85 0.9 WNW 65 85 35 46 966.3 - 10.2
15/04:00am 4.4 -10.0 1.9 84 1.0 WNW 67 89 36 48 966.6 - 10.2
15/03:30am 4.9 -10.3 2.6 85 0.9 WNW 72 93 39 50 966.4 - 10.2
15/03:00am 4.6 -10.6 2.8 88 0.8 WNW 72 95 39 51 966.8 967.1 10.0
15/02:30am 6.0 -8.5 3.8 86 0.9 NW 69 87 37 47 966.7 - 9.6

Other Formats:

Comma delimited format used in spreadsheet applications
http://www.bom.gov.au/fwo/IDT60803/IDT60803.94998.axf

JavaScript Object Notation format (JSON) in row-major order
http://www.bom.gov.au/fwo/IDT60803/IDT60803.94998.json